createdAt,value
2023-02-11T00:00:41.932Z,-0.95
2023-02-11T00:03:08.538Z,-1.01
2023-02-11T00:05:35.232Z,-1.05
2023-02-11T00:08:01.853Z,-1.08
2023-02-11T00:10:28.444Z,-1.09
2023-02-11T00:12:54.978Z,-1.08
2023-02-11T00:15:21.546Z,-1.07
2023-02-11T00:17:48.058Z,-1.10
2023-02-11T00:20:15.115Z,-1.13
2023-02-11T00:22:41.730Z,-1.12
2023-02-11T00:25:08.479Z,-1.13
2023-02-11T00:27:37.016Z,-1.17
2023-02-11T00:30:05.286Z,-1.17
2023-02-11T00:32:31.955Z,-1.19
2023-02-11T00:34:58.548Z,-1.16
2023-02-11T00:37:25.072Z,-1.07
2023-02-11T00:39:51.656Z,-1.08
2023-02-11T00:42:18.287Z,-1.06
2023-02-11T00:44:44.828Z,-1.08
2023-02-11T00:47:11.382Z,-1.11
2023-02-11T00:49:40.235Z,-1.17
2023-02-11T00:52:07.226Z,-1.17
2023-02-11T00:54:33.774Z,-1.19
2023-02-11T00:57:00.311Z,-1.20
2023-02-11T00:59:27.078Z,-1.26
2023-02-11T01:01:53.719Z,-1.32
2023-02-11T01:07:23.260Z,-1.46
2023-02-11T01:09:49.899Z,-1.42
2023-02-11T01:12:16.558Z,-1.44
2023-02-11T01:14:43.534Z,-1.48
2023-02-11T01:17:10.390Z,-1.48
2023-02-11T01:19:38.310Z,-1.46
2023-02-11T01:22:05.388Z,-1.47
2023-02-11T01:24:32.280Z,-1.47
2023-02-11T01:26:58.850Z,-1.49
2023-02-11T01:29:25.531Z,-1.45
2023-02-11T01:31:52.480Z,-1.49
2023-02-11T01:34:19.054Z,-1.51
2023-02-11T01:36:45.593Z,-1.54
2023-02-11T01:39:12.136Z,-1.52
2023-02-11T01:41:38.739Z,-1.47
2023-02-11T01:44:37.650Z,-1.45
2023-02-11T01:47:06.423Z,-1.47
2023-02-11T01:49:36.580Z,-1.50
2023-02-11T01:52:09.127Z,-1.55
2023-02-11T01:55:00.243Z,-1.61
2023-02-11T01:57:30.292Z,-1.58
2023-02-11T02:00:02.865Z,-1.62
2023-02-11T02:02:52.236Z,-1.63
2023-02-11T02:05:21.661Z,-1.65
2023-02-11T02:08:05.201Z,-1.71
2023-02-11T02:10:35.454Z,-1.71
2023-02-11T02:13:02.101Z,-1.77
2023-02-11T02:15:32.513Z,-1.70
2023-02-11T02:18:01.690Z,-1.71
2023-02-11T02:20:44.066Z,-1.65
2023-02-11T02:23:16.321Z,-1.72
2023-02-11T02:26:11.958Z,-1.74
2023-02-11T02:28:44.522Z,-1.74
2023-02-11T02:31:14.118Z,-1.78
2023-02-11T02:33:51.764Z,-1.81
2023-02-11T02:36:24.208Z,-1.82
2023-02-11T02:39:09.071Z,-1.84
2023-02-11T02:41:37.130Z,-1.84
2023-02-11T02:44:03.971Z,-1.96
2023-02-11T02:46:33.776Z,-2.01
2023-02-11T02:49:00.546Z,-2.06
2023-02-11T02:51:35.991Z,-2.08
2023-02-11T02:54:17.547Z,-2.07
2023-02-11T02:57:08.735Z,-2.02
2023-02-11T02:59:38.194Z,-2.06
2023-02-11T03:02:11.633Z,-2.07
2023-02-11T03:10:00.262Z,-2.15
2023-02-11T03:12:30.719Z,-2.14
2023-02-11T03:14:59.423Z,-2.10
2023-02-11T03:17:27.659Z,-2.16
2023-02-11T03:19:55.044Z,-2.26
2023-02-11T03:22:30.525Z,-2.31
2023-02-11T03:24:57.197Z,-2.34
2023-02-11T03:27:32.921Z,-2.36
2023-02-11T03:30:05.434Z,-2.45
2023-02-11T03:32:37.186Z,-2.43
2023-02-11T03:35:25.233Z,-2.35
2023-02-11T03:38:14.229Z,-2.29
2023-02-11T03:40:43.001Z,-2.23
2023-02-11T03:43:17.382Z,-2.26
2023-02-11T03:45:45.893Z,-2.25
2023-02-11T03:48:28.490Z,-2.27
2023-02-11T03:50:56.690Z,-2.28
2023-02-11T03:53:23.541Z,-2.30
2023-02-11T03:55:52.902Z,-2.29
2023-02-11T03:58:19.631Z,-2.29
2023-02-11T04:00:46.521Z,-2.32
2023-02-11T04:03:13.545Z,-2.37
2023-02-11T04:05:40.995Z,-2.38
2023-02-11T04:08:07.891Z,-2.42
2023-02-11T04:10:34.725Z,-2.42
2023-02-11T04:13:01.304Z,-2.42
2023-02-11T04:15:28.060Z,-2.43
2023-02-11T04:17:54.644Z,-2.46
2023-02-11T04:20:21.394Z,-2.45
2023-02-11T04:22:47.967Z,-2.47
2023-02-11T04:25:14.554Z,-2.57
2023-02-11T04:27:41.122Z,-2.56
2023-02-11T04:30:10.337Z,-2.64
2023-02-11T04:32:36.733Z,-2.65
2023-02-11T04:35:03.617Z,-2.68
2023-02-11T04:37:30.307Z,-2.69
2023-02-11T04:39:57.088Z,-2.76
2023-02-11T04:42:23.744Z,-2.81
2023-02-11T04:44:50.350Z,-2.83
2023-02-11T04:47:16.923Z,-2.78
2023-02-11T04:49:43.678Z,-2.76
2023-02-11T04:52:10.900Z,-2.77
2023-02-11T04:54:37.476Z,-2.76
2023-02-11T04:57:04.388Z,-2.76
2023-02-11T04:59:30.939Z,-2.80
2023-02-11T05:01:57.534Z,-2.78
2023-02-11T05:04:24.218Z,-2.76
2023-02-11T05:06:50.927Z,-2.76
2023-02-11T05:09:17.787Z,-2.84
2023-02-11T05:11:44.374Z,-2.88
2023-02-11T05:14:10.974Z,-2.91
2023-02-11T05:16:37.610Z,-2.94
2023-02-11T05:19:04.436Z,-2.98
2023-02-11T05:21:31.115Z,-3.00
2023-02-11T05:23:57.757Z,-3.00
2023-02-11T05:26:24.345Z,-3.00
2023-02-11T05:28:50.976Z,-2.95
2023-02-11T05:31:17.680Z,-2.91
2023-02-11T05:33:44.465Z,-2.88
2023-02-11T05:36:13.358Z,-2.87
2023-02-11T05:38:40.710Z,-2.85
2023-02-11T05:41:07.276Z,-2.86
2023-02-11T05:43:35.331Z,-2.84
2023-02-11T05:46:02.512Z,-2.84
2023-02-11T05:48:29.162Z,-2.84
2023-02-11T05:50:55.685Z,-2.81
2023-02-11T05:53:22.223Z,-2.81
2023-02-11T05:55:49.201Z,-2.89
2023-02-11T05:58:15.894Z,-2.93
2023-02-11T06:00:42.503Z,-2.96
2023-02-11T06:03:09.073Z,-2.97
2023-02-11T06:05:35.651Z,-2.95
2023-02-11T06:08:02.215Z,-2.96
2023-02-11T06:10:28.799Z,-2.95
2023-02-11T06:12:55.387Z,-3.00
2023-02-11T06:15:22.003Z,-3.01
2023-02-11T06:17:48.570Z,-3.02
2023-02-11T06:20:15.526Z,-3.12
2023-02-11T06:22:42.125Z,-3.18
2023-02-11T06:25:11.022Z,-3.18
2023-02-11T06:27:38.489Z,-3.16
2023-02-11T06:30:06.749Z,-3.16
2023-02-11T06:32:43.969Z,-3.18
2023-02-11T06:35:12.555Z,-3.20
2023-02-11T06:37:40.047Z,-3.17
2023-02-11T06:40:07.145Z,-3.12
2023-02-11T06:42:34.611Z,-3.08
2023-02-11T06:45:01.269Z,-3.02
2023-02-11T06:47:27.828Z,-2.93
2023-02-11T06:49:54.401Z,-2.92
2023-02-11T06:52:20.955Z,-2.85
2023-02-11T06:54:47.516Z,-2.77
2023-02-11T06:57:14.074Z,-2.67
2023-02-11T06:59:41.115Z,-2.49
2023-02-11T07:02:10.510Z,-1.97
2023-02-11T07:04:37.238Z,-1.11
2023-02-11T07:07:03.773Z,-0.22
2023-02-11T07:09:30.445Z,0.57
2023-02-11T07:11:57.013Z,1.32
2023-02-11T07:14:23.659Z,1.53
2023-02-11T07:16:50.265Z,1.99
2023-02-11T07:19:17.148Z,2.59
2023-02-11T07:21:43.736Z,3.09
2023-02-11T07:24:11.398Z,3.27
2023-02-11T07:26:38.425Z,3.46
2023-02-11T07:29:05.325Z,3.69
2023-02-11T07:31:33.070Z,4.08
2023-02-11T07:34:01.976Z,4.60
2023-02-11T07:36:30.474Z,5.18
2023-02-11T07:38:57.041Z,5.77
2023-02-11T07:41:25.318Z,6.17
2023-02-11T07:43:52.023Z,6.15
2023-02-11T07:46:27.619Z,5.93
2023-02-11T07:48:55.186Z,5.63
2023-02-11T07:51:24.314Z,5.63
2023-02-11T07:53:51.895Z,5.65
2023-02-11T07:56:20.161Z,5.96
2023-02-11T07:58:46.762Z,6.24
2023-02-11T08:01:16.938Z,6.98
2023-02-11T08:03:44.137Z,7.43
2023-02-11T08:06:13.679Z,7.67
2023-02-11T08:08:40.462Z,7.50
2023-02-11T08:11:15.799Z,8.00
2023-02-11T08:13:43.215Z,7.94
2023-02-11T08:16:16.975Z,8.33
2023-02-11T08:18:43.537Z,8.36
2023-02-11T08:21:10.711Z,8.62
2023-02-11T08:23:39.025Z,8.90
2023-02-11T08:26:09.069Z,9.41
2023-02-11T08:28:38.192Z,8.82
2023-02-11T08:31:09.975Z,8.32
2023-02-11T08:33:37.081Z,8.52
2023-02-11T08:36:12.123Z,7.30
2023-02-11T08:38:38.772Z,7.46
2023-02-11T08:41:06.088Z,7.66
2023-02-11T08:43:33.397Z,7.69
2023-02-11T08:46:02.195Z,7.93
2023-02-11T08:48:29.441Z,8.30
2023-02-11T08:50:57.296Z,7.77
2023-02-11T08:53:24.246Z,7.13
2023-02-11T08:55:52.626Z,7.28
2023-02-11T08:58:19.561Z,7.21
2023-02-11T09:00:46.745Z,8.18
2023-02-11T09:03:14.802Z,8.62
2023-02-11T09:05:43.704Z,9.35
2023-02-11T09:08:10.413Z,9.89
2023-02-11T09:10:37.592Z,10.08
2023-02-11T09:13:04.187Z,8.83
2023-02-11T09:15:30.741Z,8.68
2023-02-11T09:17:57.832Z,8.28
2023-02-11T09:20:26.453Z,8.03
2023-02-11T09:22:54.464Z,8.69
2023-02-11T09:25:21.413Z,8.66
2023-02-11T09:27:48.173Z,8.18
2023-02-11T09:30:14.779Z,8.73
2023-02-11T09:32:41.462Z,9.36
2023-02-11T09:35:08.321Z,9.91
2023-02-11T09:37:37.264Z,9.08
2023-02-11T09:40:04.478Z,10.40
2023-02-11T09:42:54.393Z,10.47
2023-02-11T09:45:27.844Z,10.13
2023-02-11T09:48:00.014Z,10.13
2023-02-11T09:50:45.970Z,9.16
2023-02-11T09:53:29.691Z,8.89
2023-02-11T09:56:00.115Z,8.23
2023-02-11T09:58:35.363Z,8.75
2023-02-11T10:01:21.904Z,8.70
2023-02-11T10:03:58.496Z,8.28
2023-02-11T10:06:37.084Z,8.76
2023-02-11T10:09:40.759Z,8.67
2023-02-11T10:12:37.981Z,8.74
2023-02-11T10:15:08.615Z,8.42
2023-02-11T10:17:59.530Z,8.12
2023-02-11T10:20:42.130Z,8.82
2023-02-11T10:23:29.462Z,9.40
2023-02-11T10:25:58.983Z,9.86
2023-02-11T10:28:34.187Z,9.50
2023-02-11T10:31:06.975Z,9.88
2023-02-11T10:34:05.160Z,9.38
2023-02-11T10:36:35.797Z,10.24
2023-02-11T10:39:20.768Z,9.97
2023-02-11T10:41:58.219Z,8.96
2023-02-11T10:44:36.449Z,9.95
2023-02-11T10:47:19.122Z,9.59
2023-02-11T10:49:47.112Z,10.54
2023-02-11T10:52:22.595Z,10.45
2023-02-11T10:55:10.496Z,9.67
2023-02-11T10:57:44.644Z,9.77
2023-02-11T11:00:29.064Z,9.55
2023-02-11T11:02:58.876Z,9.80
2023-02-11T11:05:35.402Z,8.98
2023-02-11T11:08:05.888Z,8.72
2023-02-11T11:11:03.723Z,9.34
2023-02-11T11:13:39.097Z,9.89
2023-02-11T11:16:14.776Z,10.27
2023-02-11T11:18:43.965Z,10.59
2023-02-11T11:21:26.584Z,10.87
2023-02-11T11:24:03.933Z,11.08
2023-02-11T11:26:42.378Z,11.36
2023-02-11T11:29:17.614Z,10.91
2023-02-11T11:31:54.611Z,10.72
2023-02-11T11:34:30.087Z,10.80
2023-02-11T11:36:58.166Z,10.74
2023-02-11T11:39:31.160Z,10.43
2023-02-11T11:42:00.403Z,10.30
2023-02-11T11:44:33.499Z,10.00
2023-02-11T11:47:37.358Z,9.73
2023-02-11T11:50:03.882Z,9.27
2023-02-11T11:52:48.201Z,9.20
2023-02-11T11:55:25.244Z,9.04
2023-02-11T11:57:51.820Z,8.94
2023-02-11T12:00:41.017Z,9.03
2023-02-11T12:03:25.067Z,8.93
2023-02-11T12:05:51.604Z,9.27
2023-02-11T12:08:44.278Z,9.85
2023-02-11T12:11:28.744Z,10.14
2023-02-11T12:14:01.799Z,10.60
2023-02-11T12:16:47.118Z,10.92
2023-02-11T12:19:45.740Z,11.15
2023-02-11T12:22:20.969Z,11.22
2023-02-11T12:25:18.885Z,11.59
2023-02-11T12:28:05.627Z,12.11
2023-02-11T12:30:41.703Z,12.49
2023-02-11T12:33:26.222Z,12.46
2023-02-11T12:36:04.196Z,12.44
2023-02-11T12:38:45.930Z,12.63
2023-02-11T12:42:04.914Z,12.65
2023-02-11T12:44:57.468Z,12.72
2023-02-11T12:48:00.527Z,13.07
2023-02-11T12:50:53.478Z,12.98
2023-02-11T12:54:15.912Z,12.77
2023-02-11T12:56:50.973Z,12.65
2023-02-11T12:59:25.930Z,12.46
2023-02-11T13:01:53.746Z,12.43
2023-02-11T13:04:28.615Z,12.45
2023-02-11T13:07:02.252Z,12.62
2023-02-11T13:09:54.767Z,12.57
2023-02-11T13:12:40.288Z,12.59
2023-02-11T13:15:10.407Z,12.50
2023-02-11T13:17:44.884Z,12.28
2023-02-11T13:20:38.365Z,12.04
2023-02-11T13:23:19.876Z,11.99
2023-02-11T13:25:49.078Z,11.91
2023-02-11T13:28:25.670Z,11.66
2023-02-11T13:31:02.213Z,11.46
2023-02-11T13:33:49.801Z,11.23
2023-02-11T13:36:22.805Z,11.06
2023-02-11T13:38:59.817Z,11.18
2023-02-11T13:41:30.944Z,11.24
2023-02-11T13:44:00.451Z,11.19
2023-02-11T13:46:30.503Z,11.27
2023-02-11T13:48:57.853Z,11.36
2023-02-11T13:51:54.471Z,11.37
2023-02-11T13:54:31.992Z,11.37
2023-02-11T13:57:34.729Z,11.42
2023-02-11T14:00:06.091Z,11.33
2023-02-11T14:02:54.025Z,11.17
2023-02-11T14:05:50.970Z,11.04
2023-02-11T14:08:39.674Z,11.27
2023-02-11T14:11:10.906Z,11.33
2023-02-11T14:14:00.463Z,11.39
2023-02-11T14:16:37.397Z,11.47
2023-02-11T14:19:05.147Z,11.37
2023-02-11T14:21:38.363Z,11.40
2023-02-11T14:24:05.005Z,11.23
2023-02-11T14:26:52.597Z,11.23
2023-02-11T14:29:37.382Z,11.28
2023-02-11T14:32:25.179Z,11.33
2023-02-11T14:35:24.117Z,11.26
2023-02-11T14:38:28.099Z,11.31
2023-02-11T14:41:19.935Z,11.32
2023-02-11T14:43:57.797Z,11.28
2023-02-11T14:46:25.696Z,11.37
2023-02-11T14:48:55.296Z,11.34
2023-02-11T14:51:26.730Z,11.13
2023-02-11T14:54:00.553Z,11.12
2023-02-11T14:56:31.118Z,11.11
2023-02-11T14:58:58.237Z,11.07
2023-02-11T15:01:36.640Z,11.13
2023-02-11T15:04:05.892Z,11.02
2023-02-11T15:06:37.422Z,10.97
2023-02-11T15:09:28.056Z,10.97
2023-02-11T15:11:56.513Z,10.91
2023-02-11T15:14:31.943Z,10.99
2023-02-11T15:17:02.063Z,10.89
2023-02-11T15:19:41.357Z,10.89
2023-02-11T15:22:18.811Z,10.80
2023-02-11T15:24:45.923Z,10.71
2023-02-11T15:27:18.532Z,10.64
2023-02-11T15:29:51.492Z,10.59
2023-02-11T15:32:24.345Z,10.46
2023-02-11T15:34:53.972Z,10.41
2023-02-11T15:37:23.415Z,10.31
2023-02-11T15:39:51.941Z,10.28
2023-02-11T15:42:27.397Z,10.19
2023-02-11T15:45:24.725Z,10.11
2023-02-11T15:47:54.518Z,10.03
2023-02-11T15:50:23.339Z,9.92
2023-02-11T15:52:50.915Z,9.82
2023-02-11T15:55:18.736Z,9.73
2023-02-11T15:57:55.925Z,9.68
2023-02-11T16:00:25.071Z,9.58
2023-02-11T16:02:53.068Z,9.48
2023-02-11T16:05:33.509Z,9.35
2023-02-11T16:08:01.669Z,9.23
2023-02-11T16:10:34.394Z,9.14
2023-02-11T16:13:03.859Z,9.03
2023-02-11T16:15:42.308Z,8.84
2023-02-11T16:18:37.700Z,8.80
2023-02-11T16:21:11.883Z,8.64
2023-02-11T16:23:44.150Z,8.52
2023-02-11T16:26:24.580Z,8.34
2023-02-11T16:28:51.895Z,8.23
2023-02-11T16:31:19.034Z,8.14
2023-02-11T16:33:45.664Z,7.98
2023-02-11T16:36:14.731Z,7.90
2023-02-11T16:38:41.086Z,7.79
2023-02-11T16:41:08.855Z,7.64
2023-02-11T16:43:35.527Z,7.57
2023-02-11T16:46:02.184Z,7.47
2023-02-11T16:48:29.086Z,7.34
2023-02-11T16:50:55.935Z,7.22
2023-02-11T16:53:24.351Z,7.01
2023-02-11T16:55:52.945Z,6.95
2023-02-11T16:58:19.828Z,6.91
2023-02-11T17:00:48.377Z,6.69
2023-02-11T17:03:23.373Z,6.71
2023-02-11T17:05:55.592Z,6.61
2023-02-11T17:08:22.859Z,6.52
2023-02-11T17:10:49.873Z,6.46
2023-02-11T17:13:16.649Z,6.38
2023-02-11T17:15:43.191Z,6.32
2023-02-11T17:18:13.772Z,6.30
2023-02-11T17:20:41.059Z,6.21
2023-02-11T17:23:07.776Z,6.15
2023-02-11T17:25:34.384Z,6.07
2023-02-11T17:28:00.994Z,6.00
2023-02-11T17:30:27.599Z,5.96
2023-02-11T17:32:54.165Z,5.92
2023-02-11T17:35:20.865Z,5.83
2023-02-11T17:37:47.460Z,5.83
2023-02-11T17:40:14.391Z,5.75
2023-02-11T17:42:42.218Z,5.66
2023-02-11T17:45:09.653Z,5.63
2023-02-11T17:47:36.902Z,5.52
2023-02-11T17:50:03.979Z,5.49
2023-02-11T17:52:30.655Z,5.42
2023-02-11T17:54:58.109Z,5.39
2023-02-11T17:57:24.861Z,5.36
2023-02-11T17:59:51.606Z,5.29
2023-02-11T18:02:18.317Z,5.24
2023-02-11T18:04:44.922Z,5.20
2023-02-11T18:07:11.583Z,5.15
2023-02-11T18:09:42.102Z,5.07
2023-02-11T18:12:08.935Z,5.02
2023-02-11T18:14:35.494Z,4.98
2023-02-11T18:17:02.134Z,4.89
2023-02-11T18:19:30.623Z,4.84
2023-02-11T18:22:00.780Z,4.77
2023-02-11T18:24:27.592Z,4.77
2023-02-11T18:26:55.206Z,4.71
2023-02-11T18:29:21.849Z,4.81
2023-02-11T18:31:48.468Z,4.75
2023-02-11T18:34:15.900Z,4.65
2023-02-11T18:36:42.652Z,4.51
2023-02-11T18:39:09.423Z,4.36
2023-02-11T18:41:36.047Z,4.27
2023-02-11T18:44:04.567Z,4.20
2023-02-11T18:46:31.412Z,4.16
2023-02-11T18:48:58.014Z,4.13
2023-02-11T18:51:24.985Z,4.07
2023-02-11T18:53:51.586Z,4.04
2023-02-11T18:56:22.121Z,4.05
2023-02-11T18:58:49.198Z,4.02
2023-02-11T19:01:18.381Z,3.96
2023-02-11T19:03:45.175Z,3.90
2023-02-11T19:06:26.048Z,3.81
2023-02-11T19:08:59.680Z,3.77
2023-02-11T19:11:46.894Z,3.72
2023-02-11T19:14:22.612Z,3.63
2023-02-11T19:16:50.698Z,3.65
2023-02-11T19:19:18.165Z,3.61
2023-02-11T19:21:46.005Z,3.56
2023-02-11T19:24:15.530Z,3.54
2023-02-11T19:26:42.450Z,3.45
2023-02-11T19:29:09.026Z,3.42
2023-02-11T19:31:35.748Z,3.39
2023-02-11T19:34:03.481Z,3.35
2023-02-11T19:36:30.523Z,3.27
2023-02-11T19:39:00.401Z,3.25
2023-02-11T19:41:28.134Z,3.21
2023-02-11T19:43:56.595Z,3.11
2023-02-11T19:46:27.684Z,3.04
2023-02-11T19:48:55.050Z,2.98
2023-02-11T19:51:22.136Z,2.94
2023-02-11T19:53:49.022Z,2.94
2023-02-11T19:56:16.175Z,2.92
2023-02-11T19:58:43.077Z,2.87
2023-02-11T20:01:14.964Z,2.84
2023-02-11T20:03:42.715Z,2.81
2023-02-11T20:06:15.459Z,2.79
2023-02-11T20:08:42.224Z,2.73
2023-02-11T20:11:11.482Z,2.65
2023-02-11T20:13:38.613Z,2.62
2023-02-11T20:16:07.437Z,2.57
2023-02-11T20:18:35.103Z,2.55
2023-02-11T20:21:09.711Z,2.48
2023-02-11T20:23:38.341Z,2.51
2023-02-11T20:26:13.979Z,2.49
2023-02-11T20:28:40.810Z,2.44
2023-02-11T20:31:08.070Z,2.36
2023-02-11T20:33:34.884Z,2.33
2023-02-11T20:36:12.549Z,2.30
2023-02-11T20:38:39.155Z,2.28
2023-02-11T20:41:09.678Z,2.31
2023-02-11T20:43:38.048Z,2.30
2023-02-11T20:46:06.088Z,2.25
2023-02-11T20:48:33.218Z,2.28
2023-02-11T20:51:07.952Z,2.27
2023-02-11T20:53:36.339Z,2.28
2023-02-11T20:56:08.303Z,2.28
2023-02-11T20:58:36.044Z,2.21
2023-02-11T21:01:11.068Z,2.20
2023-02-11T21:03:37.693Z,2.18
2023-02-11T21:06:04.405Z,2.13
2023-02-11T21:08:30.977Z,2.08
2023-02-11T21:10:58.296Z,2.00
2023-02-11T21:13:25.104Z,1.96
2023-02-11T21:15:57.257Z,1.94
2023-02-11T21:18:24.267Z,1.93
2023-02-11T21:20:51.425Z,1.96
2023-02-11T21:23:17.964Z,1.95
2023-02-11T21:25:44.600Z,1.94
2023-02-11T21:28:11.420Z,1.91
2023-02-11T21:30:39.022Z,1.89
2023-02-11T21:33:06.299Z,1.87
2023-02-11T21:35:34.564Z,1.87
2023-02-11T21:38:01.200Z,1.89
2023-02-11T21:40:29.086Z,1.93
2023-02-11T21:42:57.170Z,1.88
2023-02-11T21:45:25.157Z,1.91
2023-02-11T21:47:53.117Z,1.90
2023-02-11T21:55:39.729Z,1.39
2023-02-11T21:58:07.081Z,1.45
2023-02-11T22:00:34.201Z,1.44
2023-02-11T22:03:01.092Z,1.44
2023-02-11T22:05:27.778Z,1.46
2023-02-11T22:07:54.331Z,1.47
2023-02-11T22:10:21.331Z,1.51
2023-02-11T22:12:47.971Z,1.52
2023-02-11T22:15:14.500Z,1.49
2023-02-11T22:17:41.052Z,1.51
2023-02-11T22:20:08.178Z,1.54
2023-02-11T22:22:35.429Z,1.54
2023-02-11T22:25:02.221Z,1.53
2023-02-11T22:27:29.083Z,1.50
2023-02-11T22:29:55.655Z,1.50
2023-02-11T22:32:22.250Z,1.45
2023-02-11T22:34:49.940Z,1.44
2023-02-11T22:37:17.789Z,1.45
2023-02-11T22:39:44.362Z,1.44
2023-02-11T22:42:10.928Z,1.47
2023-02-11T22:44:37.787Z,1.43
2023-02-11T22:47:04.348Z,1.42
2023-02-11T22:49:33.276Z,1.43
2023-02-11T22:52:00.363Z,1.44
2023-02-11T22:54:27.081Z,1.44
2023-02-11T22:56:53.748Z,1.43
2023-02-11T22:59:20.759Z,1.44
2023-02-11T23:01:48.745Z,1.44
2023-02-11T23:04:17.018Z,1.41
2023-02-11T23:06:43.929Z,1.37
2023-02-11T23:09:12.294Z,1.41
2023-02-11T23:11:41.023Z,1.40
2023-02-11T23:14:10.148Z,1.34
2023-02-11T23:16:36.566Z,1.25
2023-02-11T23:19:07.316Z,1.15
2023-02-11T23:21:36.849Z,1.14
2023-02-11T23:24:13.610Z,1.19
2023-02-11T23:26:41.880Z,1.26
2023-02-11T23:29:08.925Z,1.31
2023-02-11T23:31:39.758Z,1.36
2023-02-11T23:34:07.779Z,1.45
2023-02-11T23:36:34.720Z,1.50
2023-02-11T23:39:01.663Z,1.51
2023-02-11T23:41:28.318Z,1.51
2023-02-11T23:43:56.814Z,1.51
2023-02-11T23:46:24.673Z,1.51
2023-02-11T23:48:52.323Z,1.52
2023-02-11T23:51:19.547Z,1.49
2023-02-11T23:53:46.389Z,1.51
2023-02-11T23:56:19.332Z,1.50
2023-02-11T23:58:49.360Z,1.46
